sensor_id;sensor_type;location;lat;lon;timestamp;noise_LAeq;noise_LA_min;noise_LA_max;noise_LA01;noise_LA95
77134;Laerm;25175;50.140;18.990;2023-02-28T00:01:18;35.25;33.29;38.04;;
77134;Laerm;25175;50.140;18.990;2023-02-28T00:04:26;35.20;33.20;37.91;;
77134;Laerm;25175;50.140;18.990;2023-02-28T00:07:31;39.12;33.33;56.31;;
77134;Laerm;25175;50.140;18.990;2023-02-28T00:10:36;34.84;32.76;37.82;;
77134;Laerm;25175;50.140;18.990;2023-02-28T00:13:46;35.14;33.49;38.03;;
77134;Laerm;25175;50.140;18.990;2023-02-28T00:16:50;37.76;33.35;51.96;;
77134;Laerm;25175;50.140;18.990;2023-02-28T00:19:58;35.31;33.33;38.64;;
77134;Laerm;25175;50.140;18.990;2023-02-28T00:23:05;35.27;33.42;38.64;;
77134;Laerm;25175;50.140;18.990;2023-02-28T00:26:11;35.63;33.55;38.09;;
77134;Laerm;25175;50.140;18.990;2023-02-28T00:29:19;35.33;33.73;37.76;;
77134;Laerm;25175;50.140;18.990;2023-02-28T00:32:25;35.37;33.18;41.33;;
77134;Laerm;25175;50.140;18.990;2023-02-28T00:35:32;37.22;33.11;51.64;;
77134;Laerm;25175;50.140;18.990;2023-02-28T00:38:39;36.81;33.78;67.80;;
77134;Laerm;25175;50.140;18.990;2023-02-28T00:41:44;38.02;33.49;52.45;;
77134;Laerm;25175;50.140;18.990;2023-02-28T00:44:49;36.91;34.29;64.59;;
77134;Laerm;25175;50.140;18.990;2023-02-28T00:47:54;36.77;34.27;63.92;;
77134;Laerm;25175;50.140;18.990;2023-02-28T00:51:02;36.49;33.60;66.42;;
77134;Laerm;25175;50.140;18.990;2023-02-28T00:54:07;35.41;33.65;39.74;;
77134;Laerm;25175;50.140;18.990;2023-02-28T00:57:12;41.10;34.01;58.96;;
77134;Laerm;25175;50.140;18.990;2023-02-28T01:00:17;36.01;34.02;38.77;;
77134;Laerm;25175;50.140;18.990;2023-02-28T01:03:23;36.49;33.78;41.77;;
77134;Laerm;25175;50.140;18.990;2023-02-28T01:06:30;36.18;34.22;39.23;;
77134;Laerm;25175;50.140;18.990;2023-02-28T01:09:36;35.98;33.97;39.57;;
77134;Laerm;25175;50.140;18.990;2023-02-28T01:12:40;36.41;34.02;39.12;;
77134;Laerm;25175;50.140;18.990;2023-02-28T01:15:51;36.95;34.24;41.29;;
77134;Laerm;25175;50.140;18.990;2023-02-28T01:18:56;36.93;34.21;41.66;;
77134;Laerm;25175;50.140;18.990;2023-02-28T01:22:06;35.66;33.72;41.90;;
77134;Laerm;25175;50.140;18.990;2023-02-28T01:25:10;36.31;33.93;41.68;;
77134;Laerm;25175;50.140;18.990;2023-02-28T01:28:16;35.94;33.69;41.05;;
77134;Laerm;25175;50.140;18.990;2023-02-28T01:31:22;35.41;33.37;38.21;;
77134;Laerm;25175;50.140;18.990;2023-02-28T01:34:28;38.85;33.47;53.90;;
77134;Laerm;25175;50.140;18.990;2023-02-28T01:37:35;36.18;33.98;41.45;;
77134;Laerm;25175;50.140;18.990;2023-02-28T01:40:40;36.99;33.37;66.92;;
77134;Laerm;25175;50.140;18.990;2023-02-28T01:44:03;36.68;33.33;67.86;;
77134;Laerm;25175;50.140;18.990;2023-02-28T01:47:08;36.50;33.95;42.61;;
77134;Laerm;25175;50.140;18.990;2023-02-28T01:50:18;36.10;34.04;39.15;;
77134;Laerm;25175;50.140;18.990;2023-02-28T01:53:35;36.05;33.80;40.21;;
77134;Laerm;25175;50.140;18.990;2023-02-28T01:56:48;36.87;33.49;66.20;;
77134;Laerm;25175;50.140;18.990;2023-02-28T02:00:03;37.52;34.13;68.84;;
77134;Laerm;25175;50.140;18.990;2023-02-28T02:03:18;36.87;33.97;66.28;;
77134;Laerm;25175;50.140;18.990;2023-02-28T02:06:29;36.20;34.10;39.64;;
77134;Laerm;25175;50.140;18.990;2023-02-28T02:09:37;36.41;34.15;40.11;;
77134;Laerm;25175;50.140;18.990;2023-02-28T02:13:16;37.90;34.25;68.33;;
77134;Laerm;25175;50.140;18.990;2023-02-28T02:16:45;36.78;34.57;40.83;;
77134;Laerm;25175;50.140;18.990;2023-02-28T02:20:38;37.00;34.56;42.20;;
77134;Laerm;25175;50.140;18.990;2023-02-28T02:28:46;36.82;34.18;50.37;;
77134;Laerm;25175;50.140;18.990;2023-02-28T02:32:36;36.66;34.28;42.66;;
77134;Laerm;25175;50.140;18.990;2023-02-28T02:36:00;36.53;34.24;40.34;;
77134;Laerm;25175;50.140;18.990;2023-02-28T02:39:19;40.86;34.45;57.81;;
77134;Laerm;25175;50.140;18.990;2023-02-28T02:42:36;38.16;34.62;50.25;;
77134;Laerm;25175;50.140;18.990;2023-02-28T02:45:52;36.95;34.60;40.32;;
77134;Laerm;25175;50.140;18.990;2023-02-28T02:49:05;39.94;34.51;57.35;;
77134;Laerm;25175;50.140;18.990;2023-02-28T02:52:20;37.17;34.49;43.45;;
77134;Laerm;25175;50.140;18.990;2023-02-28T02:55:29;37.24;34.22;44.64;;
77134;Laerm;25175;50.140;18.990;2023-02-28T02:58:42;37.08;34.71;40.11;;
77134;Laerm;25175;50.140;18.990;2023-02-28T03:01:54;37.32;34.71;41.11;;
77134;Laerm;25175;50.140;18.990;2023-02-28T03:05:08;37.02;34.48;40.93;;
77134;Laerm;25175;50.140;18.990;2023-02-28T03:08:19;37.57;34.69;45.61;;
77134;Laerm;25175;50.140;18.990;2023-02-28T03:11:24;36.84;34.01;40.48;;
77134;Laerm;25175;50.140;18.990;2023-02-28T03:14:49;37.56;34.76;43.09;;
77134;Laerm;25175;50.140;18.990;2023-02-28T03:18:05;37.13;34.29;46.69;;
77134;Laerm;25175;50.140;18.990;2023-02-28T03:21:27;37.62;34.84;43.21;;
77134;Laerm;25175;50.140;18.990;2023-02-28T03:24:47;37.25;34.82;46.92;;
77134;Laerm;25175;50.140;18.990;2023-02-28T03:28:04;37.50;34.51;41.42;;
77134;Laerm;25175;50.140;18.990;2023-02-28T03:31:17;37.60;34.78;41.85;;
77134;Laerm;25175;50.140;18.990;2023-02-28T03:34:31;40.62;34.96;52.76;;
77134;Laerm;25175;50.140;18.990;2023-02-28T03:37:43;37.95;35.27;41.21;;
77134;Laerm;25175;50.140;18.990;2023-02-28T03:41:01;40.30;35.44;56.81;;
77134;Laerm;25175;50.140;18.990;2023-02-28T03:44:16;38.00;35.33;46.93;;
77134;Laerm;25175;50.140;18.990;2023-02-28T03:47:30;37.90;35.01;51.17;;
77134;Laerm;25175;50.140;18.990;2023-02-28T03:50:41;37.98;35.27;45.47;;
77134;Laerm;25175;50.140;18.990;2023-02-28T03:53:54;37.56;34.42;42.95;;
77134;Laerm;25175;50.140;18.990;2023-02-28T03:57:16;37.59;34.88;45.11;;
77134;Laerm;25175;50.140;18.990;2023-02-28T04:00:32;37.49;34.31;41.75;;
77134;Laerm;25175;50.140;18.990;2023-02-28T04:03:39;38.59;35.59;46.87;;
77134;Laerm;25175;50.140;18.990;2023-02-28T04:06:45;38.81;35.34;46.76;;
77134;Laerm;25175;50.140;18.990;2023-02-28T04:09:49;41.92;35.89;57.53;;
77134;Laerm;25175;50.140;18.990;2023-02-28T04:12:57;39.74;35.88;50.48;;
77134;Laerm;25175;50.140;18.990;2023-02-28T04:16:02;42.58;35.94;56.21;;
77134;Laerm;25175;50.140;18.990;2023-02-28T04:19:14;42.22;35.48;57.11;;
77134;Laerm;25175;50.140;18.990;2023-02-28T04:22:18;41.88;36.33;54.37;;
77134;Laerm;25175;50.140;18.990;2023-02-28T04:25:24;42.36;36.77;57.41;;
77134;Laerm;25175;50.140;18.990;2023-02-28T04:28:32;42.89;36.65;59.69;;
77134;Laerm;25175;50.140;18.990;2023-02-28T04:31:37;43.03;36.71;56.88;;
77134;Laerm;25175;50.140;18.990;2023-02-28T04:34:42;41.72;37.04;51.10;;
77134;Laerm;25175;50.140;18.990;2023-02-28T04:37:47;44.80;37.15;58.30;;
77134;Laerm;25175;50.140;18.990;2023-02-28T04:40:51;44.08;36.66;61.93;;
77134;Laerm;25175;50.140;18.990;2023-02-28T04:43:59;41.64;36.90;54.06;;
77134;Laerm;25175;50.140;18.990;2023-02-28T04:47:04;44.24;36.76;55.51;;
77134;Laerm;25175;50.140;18.990;2023-02-28T04:50:10;42.42;36.18;63.47;;
77134;Laerm;25175;50.140;18.990;2023-02-28T04:53:14;43.11;36.20;56.28;;
77134;Laerm;25175;50.140;18.990;2023-02-28T04:56:20;43.40;36.03;55.92;;
77134;Laerm;25175;50.140;18.990;2023-02-28T04:59:27;43.38;36.42;56.46;;
77134;Laerm;25175;50.140;18.990;2023-02-28T05:02:34;42.41;36.02;57.75;;
77134;Laerm;25175;50.140;18.990;2023-02-28T05:05:38;42.84;36.48;55.32;;
77134;Laerm;25175;50.140;18.990;2023-02-28T05:08:44;48.51;36.20;67.19;;
77134;Laerm;25175;50.140;18.990;2023-02-28T05:11:48;43.81;36.36;57.33;;
77134;Laerm;25175;50.140;18.990;2023-02-28T05:14:56;43.20;36.83;58.19;;
77134;Laerm;25175;50.140;18.990;2023-02-28T05:18:02;44.71;36.52;56.55;;
77134;Laerm;25175;50.140;18.990;2023-02-28T05:21:26;41.85;36.28;57.07;;
77134;Laerm;25175;50.140;18.990;2023-02-28T05:24:31;44.64;36.82;57.86;;
77134;Laerm;25175;50.140;18.990;2023-02-28T05:27:36;44.08;36.96;56.85;;
77134;Laerm;25175;50.140;18.990;2023-02-28T05:30:43;46.99;37.51;58.75;;
77134;Laerm;25175;50.140;18.990;2023-02-28T05:33:49;42.74;36.85;53.76;;
77134;Laerm;25175;50.140;18.990;2023-02-28T05:36:53;45.61;36.47;59.08;;
77134;Laerm;25175;50.140;18.990;2023-02-28T05:39:58;45.62;37.28;56.63;;
77134;Laerm;25175;50.140;18.990;2023-02-28T05:43:02;46.33;36.77;57.80;;
77134;Laerm;25175;50.140;18.990;2023-02-28T05:46:12;46.58;37.22;62.13;;
77134;Laerm;25175;50.140;18.990;2023-02-28T05:49:17;46.24;37.35;59.37;;
77134;Laerm;25175;50.140;18.990;2023-02-28T05:52:22;49.29;37.15;64.24;;
77134;Laerm;25175;50.140;18.990;2023-02-28T05:55:26;44.61;37.27;58.57;;
77134;Laerm;25175;50.140;18.990;2023-02-28T05:58:31;44.57;36.61;58.81;;
77134;Laerm;25175;50.140;18.990;2023-02-28T06:01:41;45.58;38.52;58.10;;
77134;Laerm;25175;50.140;18.990;2023-02-28T06:04:50;47.01;36.84;59.01;;
77134;Laerm;25175;50.140;18.990;2023-02-28T06:07:54;47.36;37.33;59.63;;
77134;Laerm;25175;50.140;18.990;2023-02-28T06:11:03;47.75;36.90;65.03;;
77134;Laerm;25175;50.140;18.990;2023-02-28T06:14:14;47.01;36.84;60.61;;
77134;Laerm;25175;50.140;18.990;2023-02-28T06:17:22;46.71;37.31;59.71;;
77134;Laerm;25175;50.140;18.990;2023-02-28T06:20:27;47.78;37.50;59.26;;
77134;Laerm;25175;50.140;18.990;2023-02-28T06:23:33;45.29;37.67;56.47;;
77134;Laerm;25175;50.140;18.990;2023-02-28T06:26:39;45.55;36.99;58.15;;
77134;Laerm;25175;50.140;18.990;2023-02-28T06:29:44;48.06;37.24;58.69;;
77134;Laerm;25175;50.140;18.990;2023-02-28T06:32:51;47.24;37.40;58.23;;
77134;Laerm;25175;50.140;18.990;2023-02-28T06:35:56;49.18;39.05;60.13;;
77134;Laerm;25175;50.140;18.990;2023-02-28T06:39:01;48.02;38.09;57.95;;
77134;Laerm;25175;50.140;18.990;2023-02-28T06:42:06;48.40;37.54;60.46;;
77134;Laerm;25175;50.140;18.990;2023-02-28T06:45:11;49.00;37.96;66.77;;
77134;Laerm;25175;50.140;18.990;2023-02-28T06:48:20;48.91;38.20;59.28;;
77134;Laerm;25175;50.140;18.990;2023-02-28T06:51:25;48.19;37.71;59.11;;
77134;Laerm;25175;50.140;18.990;2023-02-28T06:54:30;49.47;38.91;67.19;;
77134;Laerm;25175;50.140;18.990;2023-02-28T06:57:36;48.10;37.76;57.73;;
77134;Laerm;25175;50.140;18.990;2023-02-28T07:00:41;48.60;38.70;56.48;;
77134;Laerm;25175;50.140;18.990;2023-02-28T07:03:49;49.31;38.20;66.85;;
77134;Laerm;25175;50.140;18.990;2023-02-28T07:06:55;50.97;37.72;69.00;;
77134;Laerm;25175;50.140;18.990;2023-02-28T07:10:00;51.21;37.91;70.73;;
77134;Laerm;25175;50.140;18.990;2023-02-28T07:13:08;56.55;38.26;77.61;;
77134;Laerm;25175;50.140;18.990;2023-02-28T07:16:12;52.86;37.82;68.85;;
77134;Laerm;25175;50.140;18.990;2023-02-28T07:19:20;48.51;36.99;64.98;;
77134;Laerm;25175;50.140;18.990;2023-02-28T07:22:25;50.12;36.99;65.78;;
77134;Laerm;25175;50.140;18.990;2023-02-28T07:25:30;47.10;36.63;58.41;;
77134;Laerm;25175;50.140;18.990;2023-02-28T07:28:34;45.72;36.48;55.37;;
77134;Laerm;25175;50.140;18.990;2023-02-28T07:31:40;46.37;37.32;57.47;;
77134;Laerm;25175;50.140;18.990;2023-02-28T07:34:47;46.64;36.72;59.20;;
77134;Laerm;25175;50.140;18.990;2023-02-28T07:37:52;47.61;37.24;64.73;;
77134;Laerm;25175;50.140;18.990;2023-02-28T07:40:56;52.55;37.62;67.71;;
77134;Laerm;25175;50.140;18.990;2023-02-28T07:44:01;44.85;36.56;64.18;;
77134;Laerm;25175;50.140;18.990;2023-02-28T07:47:07;47.68;37.14;57.82;;
77134;Laerm;25175;50.140;18.990;2023-02-28T07:50:16;44.68;36.41;61.37;;
77134;Laerm;25175;50.140;18.990;2023-02-28T07:53:20;43.02;36.47;56.25;;
77134;Laerm;25175;50.140;18.990;2023-02-28T07:56:25;45.18;36.93;56.23;;
77134;Laerm;25175;50.140;18.990;2023-02-28T07:59:30;47.38;36.66;59.78;;
77134;Laerm;25175;50.140;18.990;2023-02-28T08:02:36;45.93;35.73;57.40;;
77134;Laerm;25175;50.140;18.990;2023-02-28T08:05:43;44.08;35.59;58.69;;
77134;Laerm;25175;50.140;18.990;2023-02-28T08:08:49;44.83;35.19;60.40;;
77134;Laerm;25175;50.140;18.990;2023-02-28T08:11:53;46.92;35.45;63.54;;
77134;Laerm;25175;50.140;18.990;2023-02-28T08:14:58;45.23;34.66;56.57;;
77134;Laerm;25175;50.140;18.990;2023-02-28T08:18:03;47.25;35.29;61.91;;
77134;Laerm;25175;50.140;18.990;2023-02-28T08:21:11;43.32;34.67;59.33;;
77134;Laerm;25175;50.140;18.990;2023-02-28T08:24:15;47.55;35.39;63.12;;
77134;Laerm;25175;50.140;18.990;2023-02-28T08:27:21;46.78;35.23;64.87;;
77134;Laerm;25175;50.140;18.990;2023-02-28T08:30:25;48.34;34.76;65.04;;
77134;Laerm;25175;50.140;18.990;2023-02-28T08:33:30;46.48;35.23;63.49;;
77134;Laerm;25175;50.140;18.990;2023-02-28T08:36:38;46.09;34.99;64.91;;
77134;Laerm;25175;50.140;18.990;2023-02-28T08:39:44;49.41;34.80;73.38;;
77134;Laerm;25175;50.140;18.990;2023-02-28T08:42:48;48.14;35.66;68.82;;
77134;Laerm;25175;50.140;18.990;2023-02-28T08:45:54;44.74;35.81;59.49;;
77134;Laerm;25175;50.140;18.990;2023-02-28T08:48:58;46.39;34.79;76.29;;
77134;Laerm;25175;50.140;18.990;2023-02-28T08:52:06;45.30;35.49;55.29;;
77134;Laerm;25175;50.140;18.990;2023-02-28T08:55:11;47.54;34.90;60.59;;
77134;Laerm;25175;50.140;18.990;2023-02-28T08:58:16;50.16;34.98;70.07;;
77134;Laerm;25175;50.140;18.990;2023-02-28T09:01:23;44.26;35.29;63.70;;
77134;Laerm;25175;50.140;18.990;2023-02-28T09:04:29;44.03;34.79;65.43;;
77134;Laerm;25175;50.140;18.990;2023-02-28T09:07:37;50.05;34.91;71.77;;
77134;Laerm;25175;50.140;18.990;2023-02-28T09:10:42;56.47;35.82;76.26;;
77134;Laerm;25175;50.140;18.990;2023-02-28T09:13:46;50.42;36.14;70.73;;
77134;Laerm;25175;50.140;18.990;2023-02-28T09:16:51;45.32;35.58;65.25;;
77134;Laerm;25175;50.140;18.990;2023-02-28T09:19:56;44.42;35.19;62.06;;
77134;Laerm;25175;50.140;18.990;2023-02-28T09:23:04;45.45;35.33;62.86;;
77134;Laerm;25175;50.140;18.990;2023-02-28T09:26:14;44.31;35.74;55.09;;
77134;Laerm;25175;50.140;18.990;2023-02-28T09:29:20;42.72;35.69;62.56;;
77134;Laerm;25175;50.140;18.990;2023-02-28T09:32:24;40.95;35.63;55.35;;
77134;Laerm;25175;50.140;18.990;2023-02-28T09:35:30;47.85;34.88;61.25;;
77134;Laerm;25175;50.140;18.990;2023-02-28T09:38:37;49.01;35.17;68.88;;
77134;Laerm;25175;50.140;18.990;2023-02-28T09:41:47;45.74;34.70;62.97;;
77134;Laerm;25175;50.140;18.990;2023-02-28T09:44:54;44.43;34.82;63.33;;
77134;Laerm;25175;50.140;18.990;2023-02-28T09:48:09;45.16;34.48;64.75;;
77134;Laerm;25175;50.140;18.990;2023-02-28T09:51:33;45.85;34.46;70.22;;
77134;Laerm;25175;50.140;18.990;2023-02-28T09:54:42;44.43;34.36;57.19;;
77134;Laerm;25175;50.140;18.990;2023-02-28T09:57:49;44.20;35.28;57.67;;
77134;Laerm;25175;50.140;18.990;2023-02-28T10:01:05;48.22;34.82;69.40;;
77134;Laerm;25175;50.140;18.990;2023-02-28T10:04:35;48.54;34.69;65.63;;
77134;Laerm;25175;50.140;18.990;2023-02-28T10:08:01;42.64;34.35;57.30;;
77134;Laerm;25175;50.140;18.990;2023-02-28T10:11:15;41.76;34.30;52.93;;
77134;Laerm;25175;50.140;18.990;2023-02-28T10:14:28;45.48;34.17;60.84;;
77134;Laerm;25175;50.140;18.990;2023-02-28T10:17:41;41.98;33.25;57.57;;
77134;Laerm;25175;50.140;18.990;2023-02-28T10:20:50;43.71;34.33;60.03;;
77134;Laerm;25175;50.140;18.990;2023-02-28T10:24:07;40.20;34.32;51.30;;
77134;Laerm;25175;50.140;18.990;2023-02-28T10:27:22;45.26;34.38;66.06;;
77134;Laerm;25175;50.140;18.990;2023-02-28T10:30:28;53.74;34.03;83.74;;
77134;Laerm;25175;50.140;18.990;2023-02-28T10:33:35;45.92;34.55;55.77;;
77134;Laerm;25175;50.140;18.990;2023-02-28T10:36:41;39.31;34.15;51.17;;
77134;Laerm;25175;50.140;18.990;2023-02-28T10:39:48;43.81;35.16;57.51;;
77134;Laerm;25175;50.140;18.990;2023-02-28T10:43:00;43.86;35.41;58.33;;
77134;Laerm;25175;50.140;18.990;2023-02-28T10:46:15;45.76;35.51;57.90;;
77134;Laerm;25175;50.140;18.990;2023-02-28T10:49:28;44.64;35.79;60.95;;
77134;Laerm;25175;50.140;18.990;2023-02-28T10:52:39;44.91;35.67;59.25;;
77134;Laerm;25175;50.140;18.990;2023-02-28T10:55:44;43.59;35.60;60.04;;
77134;Laerm;25175;50.140;18.990;2023-02-28T10:58:55;45.17;35.36;58.60;;
77134;Laerm;25175;50.140;18.990;2023-02-28T11:02:00;46.27;36.11;58.31;;
77134;Laerm;25175;50.140;18.990;2023-02-28T11:05:29;43.59;35.83;56.52;;
77134;Laerm;25175;50.140;18.990;2023-02-28T11:08:34;45.03;35.90;62.98;;
77134;Laerm;25175;50.140;18.990;2023-02-28T11:11:50;43.63;35.29;54.53;;
77134;Laerm;25175;50.140;18.990;2023-02-28T11:15:02;42.87;35.01;55.53;;
77134;Laerm;25175;50.140;18.990;2023-02-28T11:18:24;40.81;35.20;52.99;;
77134;Laerm;25175;50.140;18.990;2023-02-28T11:21:34;44.32;34.80;56.94;;
77134;Laerm;25175;50.140;18.990;2023-02-28T11:24:49;44.70;35.01;56.60;;
77134;Laerm;25175;50.140;18.990;2023-02-28T11:27:57;44.06;34.34;58.22;;
77134;Laerm;25175;50.140;18.990;2023-02-28T11:31:18;42.85;34.48;64.11;;
77134;Laerm;25175;50.140;18.990;2023-02-28T11:34:26;45.75;34.84;58.14;;
77134;Laerm;25175;50.140;18.990;2023-02-28T11:37:33;42.42;35.51;55.26;;
77134;Laerm;25175;50.140;18.990;2023-02-28T11:40:51;43.86;35.68;61.18;;
77134;Laerm;25175;50.140;18.990;2023-02-28T11:44:27;45.70;35.38;61.07;;
77134;Laerm;25175;50.140;18.990;2023-02-28T11:47:50;45.12;35.79;62.18;;
77134;Laerm;25175;50.140;18.990;2023-02-28T11:51:14;44.63;35.10;60.14;;
77134;Laerm;25175;50.140;18.990;2023-02-28T11:54:47;42.82;34.69;55.10;;
77134;Laerm;25175;50.140;18.990;2023-02-28T11:58:36;45.43;35.75;57.08;;
77134;Laerm;25175;50.140;18.990;2023-02-28T12:02:26;44.56;35.04;60.56;;
77134;Laerm;25175;50.140;18.990;2023-02-28T12:05:44;41.06;34.54;55.59;;
77134;Laerm;25175;50.140;18.990;2023-02-28T12:09:11;43.00;34.26;55.94;;
77134;Laerm;25175;50.140;18.990;2023-02-28T12:12:40;42.94;33.71;58.47;;
77134;Laerm;25175;50.140;18.990;2023-02-28T12:16:23;52.18;34.09;75.39;;
77134;Laerm;25175;50.140;18.990;2023-02-28T12:19:47;42.54;34.25;58.43;;
77134;Laerm;25175;50.140;18.990;2023-02-28T12:23:19;45.33;34.73;56.95;;
77134;Laerm;25175;50.140;18.990;2023-02-28T12:26:39;42.29;34.02;57.90;;
77134;Laerm;25175;50.140;18.990;2023-02-28T12:29:53;46.60;34.79;57.18;;
77134;Laerm;25175;50.140;18.990;2023-02-28T12:33:06;42.14;34.48;56.12;;
77134;Laerm;25175;50.140;18.990;2023-02-28T12:36:18;43.97;35.49;58.28;;
77134;Laerm;25175;50.140;18.990;2023-02-28T12:39:36;44.67;34.60;57.51;;
77134;Laerm;25175;50.140;18.990;2023-02-28T12:42:50;47.91;36.77;61.51;;
77134;Laerm;25175;50.140;18.990;2023-02-28T12:46:03;48.28;36.51;61.65;;
77134;Laerm;25175;50.140;18.990;2023-02-28T12:49:19;46.67;34.71;58.43;;
77134;Laerm;25175;50.140;18.990;2023-02-28T12:52:51;43.18;34.62;56.80;;
77134;Laerm;25175;50.140;18.990;2023-02-28T12:56:16;47.21;35.41;58.50;;
77134;Laerm;25175;50.140;18.990;2023-02-28T12:59:34;45.32;34.95;57.06;;
77134;Laerm;25175;50.140;18.990;2023-02-28T13:03:21;42.63;35.28;56.78;;
77134;Laerm;25175;50.140;18.990;2023-02-28T13:07:00;46.44;35.33;57.54;;
77134;Laerm;25175;50.140;18.990;2023-02-28T13:10:09;47.20;35.49;65.08;;
77134;Laerm;25175;50.140;18.990;2023-02-28T13:13:22;44.96;34.64;57.69;;
77134;Laerm;25175;50.140;18.990;2023-02-28T13:16:56;45.43;34.08;57.33;;
77134;Laerm;25175;50.140;18.990;2023-02-28T13:20:02;44.03;33.95;56.62;;
77134;Laerm;25175;50.140;18.990;2023-02-28T13:27:36;44.86;34.10;55.81;;
77134;Laerm;25175;50.140;18.990;2023-02-28T13:31:04;44.39;33.85;56.76;;
77134;Laerm;25175;50.140;18.990;2023-02-28T13:34:15;46.71;35.88;60.11;;
77134;Laerm;25175;50.140;18.990;2023-02-28T13:37:36;48.41;35.55;65.53;;
77134;Laerm;25175;50.140;18.990;2023-02-28T13:40:46;46.76;35.24;62.35;;
77134;Laerm;25175;50.140;18.990;2023-02-28T13:44:04;51.02;36.46;65.15;;
77134;Laerm;25175;50.140;18.990;2023-02-28T13:47:38;45.87;36.14;59.78;;
77134;Laerm;25175;50.140;18.990;2023-02-28T13:50:45;47.10;35.71;59.87;;
77134;Laerm;25175;50.140;18.990;2023-02-28T13:54:04;46.68;35.65;63.99;;
77134;Laerm;25175;50.140;18.990;2023-02-28T13:57:27;46.37;36.33;64.37;;
77134;Laerm;25175;50.140;18.990;2023-02-28T14:01:05;42.96;36.00;54.87;;
77134;Laerm;25175;50.140;18.990;2023-02-28T14:04:48;48.54;35.54;62.58;;
77134;Laerm;25175;50.140;18.990;2023-02-28T14:07:59;46.97;37.79;58.10;;
77134;Laerm;25175;50.140;18.990;2023-02-28T14:11:28;45.74;34.93;57.05;;
77134;Laerm;25175;50.140;18.990;2023-02-28T14:14:55;46.24;35.53;58.48;;
77134;Laerm;25175;50.140;18.990;2023-02-28T14:18:10;46.58;35.29;56.94;;
77134;Laerm;25175;50.140;18.990;2023-02-28T14:21:30;47.08;34.87;66.31;;
77134;Laerm;25175;50.140;18.990;2023-02-28T14:25:09;50.53;35.04;74.90;;
77134;Laerm;25175;50.140;18.990;2023-02-28T14:28:40;45.97;35.27;58.14;;
77134;Laerm;25175;50.140;18.990;2023-02-28T14:32:01;46.62;35.29;66.36;;
77134;Laerm;25175;50.140;18.990;2023-02-28T14:35:43;47.42;33.77;66.25;;
77134;Laerm;25175;50.140;18.990;2023-02-28T14:38:57;48.60;34.87;62.98;;
77134;Laerm;25175;50.140;18.990;2023-02-28T14:42:03;47.16;34.30;66.54;;
77134;Laerm;25175;50.140;18.990;2023-02-28T14:45:19;46.99;33.99;59.10;;
77134;Laerm;25175;50.140;18.990;2023-02-28T14:48:26;45.35;34.15;56.54;;
77134;Laerm;25175;50.140;18.990;2023-02-28T14:51:31;47.14;35.41;56.43;;
77134;Laerm;25175;50.140;18.990;2023-02-28T14:54:41;46.61;34.79;58.29;;
77134;Laerm;25175;50.140;18.990;2023-02-28T14:57:54;46.63;34.74;57.04;;
77134;Laerm;25175;50.140;18.990;2023-02-28T15:01:03;48.19;33.86;59.69;;
77134;Laerm;25175;50.140;18.990;2023-02-28T15:04:25;47.01;34.96;59.70;;
77134;Laerm;25175;50.140;18.990;2023-02-28T15:07:33;49.85;35.88;59.46;;
77134;Laerm;25175;50.140;18.990;2023-02-28T15:10:44;47.63;35.11;58.67;;
77134;Laerm;25175;50.140;18.990;2023-02-28T15:13:55;45.04;35.29;68.45;;
77134;Laerm;25175;50.140;18.990;2023-02-28T15:17:14;47.64;35.21;62.97;;
77134;Laerm;25175;50.140;18.990;2023-02-28T15:20:26;48.12;35.38;62.22;;
77134;Laerm;25175;50.140;18.990;2023-02-28T15:23:35;47.33;35.31;59.08;;
77134;Laerm;25175;50.140;18.990;2023-02-28T15:26:51;47.14;34.89;66.97;;
77134;Laerm;25175;50.140;18.990;2023-02-28T15:30:00;49.05;34.87;67.08;;
77134;Laerm;25175;50.140;18.990;2023-02-28T15:33:22;49.23;34.09;69.17;;
77134;Laerm;25175;50.140;18.990;2023-02-28T15:36:30;46.53;33.81;64.53;;
77134;Laerm;25175;50.140;18.990;2023-02-28T15:39:44;46.84;34.18;60.84;;
77134;Laerm;25175;50.140;18.990;2023-02-28T15:43:05;46.49;34.83;60.30;;
77134;Laerm;25175;50.140;18.990;2023-02-28T15:46:13;46.34;34.72;59.49;;
77134;Laerm;25175;50.140;18.990;2023-02-28T15:49:22;45.98;34.58;61.31;;
77134;Laerm;25175;50.140;18.990;2023-02-28T15:52:34;48.65;35.04;61.15;;
77134;Laerm;25175;50.140;18.990;2023-02-28T15:55:42;45.82;35.18;62.26;;
77134;Laerm;25175;50.140;18.990;2023-02-28T15:58:55;46.02;34.07;67.56;;
77134;Laerm;25175;50.140;18.990;2023-02-28T16:02:15;45.68;34.70;58.99;;
77134;Laerm;25175;50.140;18.990;2023-02-28T16:05:25;46.22;34.19;59.04;;
77134;Laerm;25175;50.140;18.990;2023-02-28T16:08:36;44.83;34.26;58.37;;
77134;Laerm;25175;50.140;18.990;2023-02-28T16:11:47;49.83;35.07;66.53;;
77134;Laerm;25175;50.140;18.990;2023-02-28T16:14:59;49.07;35.39;63.04;;
77134;Laerm;25175;50.140;18.990;2023-02-28T16:18:11;45.79;35.25;57.25;;
77134;Laerm;25175;50.140;18.990;2023-02-28T16:21:17;45.71;34.74;59.69;;
77134;Laerm;25175;50.140;18.990;2023-02-28T16:24:22;47.37;35.81;60.41;;
77134;Laerm;25175;50.140;18.990;2023-02-28T16:27:32;46.17;35.62;60.30;;
77134;Laerm;25175;50.140;18.990;2023-02-28T16:30:40;45.14;35.56;63.56;;
77134;Laerm;25175;50.140;18.990;2023-02-28T16:33:46;45.16;35.54;58.98;;
77134;Laerm;25175;50.140;18.990;2023-02-28T16:36:52;47.60;36.08;60.89;;
77134;Laerm;25175;50.140;18.990;2023-02-28T16:39:56;45.48;36.70;60.43;;
77134;Laerm;25175;50.140;18.990;2023-02-28T16:43:08;44.72;35.64;64.77;;
77134;Laerm;25175;50.140;18.990;2023-02-28T16:46:20;47.10;35.92;62.91;;
77134;Laerm;25175;50.140;18.990;2023-02-28T16:49:26;49.10;36.00;63.15;;
77134;Laerm;25175;50.140;18.990;2023-02-28T16:52:30;46.96;36.42;57.00;;
77134;Laerm;25175;50.140;18.990;2023-02-28T16:55:37;48.00;35.70;64.39;;
77134;Laerm;25175;50.140;18.990;2023-02-28T16:58:42;44.00;36.01;55.01;;
77134;Laerm;25175;50.140;18.990;2023-02-28T17:01:50;40.90;36.00;50.95;;
77134;Laerm;25175;50.140;18.990;2023-02-28T17:04:54;44.83;35.74;55.21;;
77134;Laerm;25175;50.140;18.990;2023-02-28T17:07:59;44.05;36.14;56.61;;
77134;Laerm;25175;50.140;18.990;2023-02-28T17:11:04;44.20;36.15;64.52;;
77134;Laerm;25175;50.140;18.990;2023-02-28T17:14:09;44.29;36.23;63.77;;
77134;Laerm;25175;50.140;18.990;2023-02-28T17:17:21;43.39;36.24;54.44;;
77134;Laerm;25175;50.140;18.990;2023-02-28T17:20:27;45.25;36.15;61.32;;
77134;Laerm;25175;50.140;18.990;2023-02-28T17:23:32;44.77;36.41;54.27;;
77134;Laerm;25175;50.140;18.990;2023-02-28T17:26:39;46.13;35.97;59.01;;
77134;Laerm;25175;50.140;18.990;2023-02-28T17:29:43;43.56;36.07;55.46;;
77134;Laerm;25175;50.140;18.990;2023-02-28T17:32:51;45.18;35.77;66.60;;
77134;Laerm;25175;50.140;18.990;2023-02-28T17:35:56;45.73;36.03;62.63;;
77134;Laerm;25175;50.140;18.990;2023-02-28T17:39:02;44.21;36.41;54.40;;
77134;Laerm;25175;50.140;18.990;2023-02-28T17:42:07;43.89;36.27;56.36;;
77134;Laerm;25175;50.140;18.990;2023-02-28T17:45:14;43.65;35.89;54.76;;